Time;durP1;ratioP1;P1;durP2;ratioP2;P2;SDS_P1;SDS_P2;PMS_P1;PMS_P2;Temp;Humidity;BMP_temperature;BMP_pressure;BME280_temperature;BME280_humidity;BME280_pressure;Samples;Min_cycle;Max_cycle;Signal;HPM_P1;HPM_P2
2021/04/21 00:02:37;;;;;;;8.20;4.28;;;;;;;-146.18;100.00;67994.34;9988615;29;20044;-66
2021/04/21 00:07:35;;;;;;;8.73;4.07;;;;;;;-146.18;100.00;67994.34;9986998;29;20552;-66
2021/04/21 00:12:31;;;;;;;12.68;5.75;;;;;;;-146.18;100.00;67994.34;9991349;29;20092;-65
2021/04/21 00:17:28;;;;;;;11.88;5.05;;;;;;;-146.18;100.00;67994.34;9989054;29;20107;-66
2021/04/21 00:22:27;;;;;;;11.88;5.57;;;;;;;-146.18;100.00;67994.34;9988430;29;20111;-66
2021/04/21 00:27:25;;;;;;;9.38;4.82;;;;;;;-146.18;100.00;67994.34;9979423;29;20091;-67
2021/04/21 00:32:26;;;;;;;9.65;5.45;;;;;;;-146.18;100.00;67994.34;9986065;29;20459;-65
2021/04/21 00:37:26;;;;;;;9.77;5.40;;;;;;;-146.18;100.00;67994.34;9983844;29;20127;-67
2021/04/21 00:42:48;;;;;;;10.05;5.72;;;;;;;-146.18;100.00;67994.34;9978956;29;20147;-66
2021/04/21 00:47:58;;;;;;;10.82;6.00;;;;;;;-146.18;100.00;67994.34;9985835;29;20051;-66
2021/04/21 00:53:02;;;;;;;13.18;5.63;;;;;;;-146.18;100.00;67994.34;9983369;29;20049;-66
2021/04/21 00:58:20;;;;;;;10.15;4.72;;;;;;;-146.18;100.00;67994.34;9981104;29;20048;-66
2021/04/21 01:03:22;;;;;;;13.50;5.65;;;;;;;-146.18;100.00;67994.34;9983479;29;21486;-65
2021/04/21 01:08:24;;;;;;;12.95;5.60;;;;;;;-146.18;100.00;67994.34;9983510;29;20456;-67
2021/04/21 01:13:23;;;;;;;16.35;6.53;;;;;;;-146.18;100.00;67994.34;9978262;29;20044;-66
2021/04/21 01:18:20;;;;;;;10.88;5.65;;;;;;;-146.18;100.00;67994.34;9984419;29;20048;-66
2021/04/21 01:23:19;;;;;;;14.98;6.13;;;;;;;-146.18;100.00;67994.34;9989277;29;20107;-66
2021/04/21 01:28:20;;;;;;;10.45;5.53;;;;;;;-146.18;100.00;67994.34;9984480;29;20526;-66
2021/04/21 01:33:20;;;;;;;10.20;5.53;;;;;;;-146.18;100.00;67994.34;9985153;29;20055;-66
2021/04/21 01:38:17;;;;;;;12.43;5.90;;;;;;;-146.18;100.00;67994.34;9981794;29;20111;-65
2021/04/21 01:43:18;;;;;;;10.05;6.25;;;;;;;-146.18;100.00;67994.34;9989402;29;20077;-66
2021/04/21 01:48:22;;;;;;;9.68;5.45;;;;;;;-146.18;100.00;67994.34;9987978;29;20523;-65
2021/04/21 01:53:38;;;;;;;11.80;5.85;;;;;;;-146.18;100.00;67994.34;9987680;29;20143;-66
2021/04/21 01:58:53;;;;;;;13.93;6.32;;;;;;;-146.18;100.00;67994.34;9990756;29;20585;-66
2021/04/21 02:03:58;;;;;;;10.88;6.20;;;;;;;-146.18;100.00;67994.34;9994185;29;20040;-66
2021/04/21 02:09:16;;;;;;;16.35;6.30;;;;;;;-146.18;100.00;67994.34;9996319;29;20048;-66
2021/04/21 02:14:42;;;;;;;12.23;6.25;;;;;;;-146.18;100.00;67994.34;9988719;29;20090;-66
2021/04/21 02:19:51;;;;;;;10.68;6.07;;;;;;;-146.18;100.00;67994.34;9991330;29;20107;-66
2021/04/21 02:25:10;;;;;;;14.13;6.50;;;;;;;-146.18;100.00;67994.34;9989012;29;20054;-66
2021/04/21 02:30:36;;;;;;;12.35;6.40;;;;;;;-146.18;100.00;67994.34;9990901;29;20122;-66
2021/04/21 02:35:41;;;;;;;11.15;6.00;;;;;;;-146.18;100.00;67994.34;9992334;29;20116;-65
2021/04/21 02:40:50;;;;;;;11.25;6.30;;;;;;;-146.18;100.00;67994.34;9989991;29;20044;-65
2021/04/21 02:46:12;;;;;;;12.00;5.97;;;;;;;-146.18;100.00;67994.34;9991654;29;20071;-65
2021/04/21 02:51:40;;;;;;;13.57;6.80;;;;;;;-146.18;100.00;67994.34;9990691;29;20414;-65
2021/04/21 02:56:43;;;;;;;15.05;6.68;;;;;;;-146.18;100.00;67994.34;9951183;29;20672;-66
2021/04/21 03:01:52;;;;;;;11.57;5.30;;;;;;;-146.18;100.00;67994.34;9991581;29;20507;-66
2021/04/21 03:06:49;;;;;;;13.50;6.47;;;;;;;-146.18;100.00;67994.34;9992243;29;20475;-66
2021/04/21 03:11:47;;;;;;;13.02;6.72;;;;;;;-146.18;100.00;67994.34;9986814;29;20474;-67
2021/04/21 03:16:50;;;;;;;12.45;6.88;;;;;;;-146.18;100.00;67994.34;9985576;29;20075;-65
2021/04/21 03:21:53;;;;;;;12.35;6.47;;;;;;;-146.18;100.00;67994.34;9993109;29;20426;-66
2021/04/21 03:26:56;;;;;;;18.13;7.10;;;;;;;-146.18;100.00;67994.34;9993650;29;20095;-65
2021/04/21 03:31:55;;;;;;;13.23;6.88;;;;;;;-146.18;100.00;67994.34;9993096;29;20502;-66
2021/04/21 03:36:53;;;;;;;13.02;6.53;;;;;;;-146.18;100.00;67994.34;9991981;29;20044;-66
2021/04/21 03:41:50;;;;;;;14.40;6.70;;;;;;;-146.18;100.00;67994.34;9988972;29;20503;-66
2021/04/21 03:46:46;;;;;;;14.82;7.45;;;;;;;-146.18;100.00;67994.34;9986978;29;20048;-67
2021/04/21 03:51:43;;;;;;;12.65;7.30;;;;;;;-146.18;100.00;67994.34;9981209;29;20107;-67
2021/04/21 03:56:42;;;;;;;12.98;7.60;;;;;;;-146.18;100.00;67994.34;9982581;29;20048;-65
2021/04/21 04:01:40;;;;;;;16.92;8.88;;;;;;;-146.18;100.00;67994.34;9984991;29;20143;-65
2021/04/21 04:06:43;;;;;;;14.75;7.57;;;;;;;-146.18;100.00;67994.34;9987051;29;20420;-66
2021/04/21 04:11:58;;;;;;;16.02;8.38;;;;;;;-146.18;100.00;67994.34;9981054;29;20048;-66
2021/04/21 04:16:56;;;;;;;12.60;7.40;;;;;;;-146.18;100.00;67994.34;9973148;29;20111;-66
2021/04/21 04:22:16;;;;;;;16.30;7.90;;;;;;;-146.18;100.00;67994.34;9986209;29;20056;-65
2021/04/21 04:27:18;;;;;;;16.33;8.18;;;;;;;-146.18;100.00;67994.34;9988856;29;20075;-66
2021/04/21 04:32:19;;;;;;;15.50;8.00;;;;;;;-146.18;100.00;67994.34;9988530;29;20052;-67
2021/04/21 04:37:18;;;;;;;15.20;9.15;;;;;;;-146.18;100.00;67994.34;9983089;29;20493;-65
2021/04/21 04:42:16;;;;;;;13.90;7.70;;;;;;;-146.18;100.00;67994.34;9990756;29;20088;-66
2021/04/21 04:47:22;;;;;;;16.70;8.30;;;;;;;-146.18;100.00;67994.34;9985584;29;20123;-66
2021/04/21 04:52:20;;;;;;;15.75;8.05;;;;;;;-146.18;100.00;67994.34;9991369;29;20048;-66
2021/04/21 04:57:18;;;;;;;15.98;9.05;;;;;;;-146.18;100.00;67994.34;9960841;29;20048;-65
2021/04/21 05:02:16;;;;;;;16.70;8.50;;;;;;;-146.18;100.00;67994.34;9986424;29;20511;-67
2021/04/21 05:07:21;;;;;;;21.90;9.65;;;;;;;-146.18;100.00;67994.34;9977806;29;20147;-66
2021/04/21 05:12:21;;;;;;;17.20;9.45;;;;;;;-146.18;100.00;67994.34;9979757;29;20139;-65
2021/04/21 05:17:48;;;;;;;20.08;9.88;;;;;;;-146.18;100.00;67994.34;9987122;29;20040;-65
2021/04/21 05:23:22;;;;;;;18.20;10.88;;;;;;;-146.18;100.00;67994.34;9984782;29;20079;-65
2021/04/21 05:28:21;;;;;;;19.05;11.63;;;;;;;-146.18;100.00;67994.34;9980881;29;20051;-65
2021/04/21 05:33:35;;;;;;;18.73;11.40;;;;;;;-146.18;100.00;67994.34;9982594;29;20048;-66
2021/04/21 05:39:26;;;;;;;23.35;10.85;;;;;;;-146.18;100.00;67994.34;9984012;29;20047;-67
2021/04/21 05:44:56;;;;;;;20.98;11.55;;;;;;;-146.18;100.00;67994.34;9985098;29;20491;-67
2021/04/21 05:50:14;;;;;;;20.48;11.07;;;;;;;-146.18;100.00;67994.34;9985969;29;20078;-68
2021/04/21 05:55:38;;;;;;;16.33;9.30;;;;;;;-146.18;100.00;67994.34;9985768;29;20566;-65
2021/04/21 06:00:47;;;;;;;20.00;11.30;;;;;;;-146.18;100.00;67994.34;9987151;29;20187;-66
2021/04/21 06:05:43;;;;;;;19.55;11.57;;;;;;;-146.18;100.00;67994.34;9984981;29;20082;-65
2021/04/21 06:10:41;;;;;;;18.98;10.32;;;;;;;-146.18;100.00;67994.34;9986879;29;20048;-66
2021/04/21 06:15:39;;;;;;;27.38;12.50;;;;;;;-146.18;100.00;67994.34;9988640;29;20052;-66
2021/04/21 06:20:41;;;;;;;19.65;11.85;;;;;;;-146.18;100.00;67994.34;9974764;29;20067;-65
2021/04/21 06:25:45;;;;;;;18.92;11.18;;;;;;;-146.18;100.00;67994.34;9985242;29;20048;-65
2021/04/21 06:30:43;;;;;;;20.20;10.30;;;;;;;-146.18;100.00;67994.34;9986473;29;20079;-68
2021/04/21 06:35:40;;;;;;;16.00;9.88;;;;;;;-146.18;100.00;67994.34;9988029;29;20048;-66
2021/04/21 06:40:41;;;;;;;21.23;11.15;;;;;;;-146.18;100.00;67994.34;9978841;29;20506;-65
2021/04/21 06:45:37;;;;;;;16.75;9.57;;;;;;;-146.18;100.00;67994.34;9993409;29;20088;-66
2021/04/21 06:50:39;;;;;;;19.08;10.23;;;;;;;-146.18;100.00;67994.34;9988036;29;20048;-67
2021/04/21 06:55:35;;;;;;;18.48;10.07;;;;;;;-146.18;100.00;67994.34;9990382;29;20419;-67
2021/04/21 07:00:32;;;;;;;16.17;10.25;;;;;;;-146.18;100.00;67994.34;9994979;29;20062;-66
2021/04/21 07:05:37;;;;;;;17.92;9.88;;;;;;;-146.18;100.00;67994.34;9989369;29;20044;-65
2021/04/21 07:10:46;;;;;;;14.63;9.48;;;;;;;-146.18;100.00;67994.34;9991282;29;20126;-66
2021/04/21 07:15:44;;;;;;;25.58;9.20;;;;;;;-146.18;100.00;67994.34;9989157;29;20100;-66
2021/04/21 07:20:40;;;;;;;16.65;9.25;;;;;;;-146.18;100.00;67994.34;9990832;29;20055;-66
2021/04/21 07:25:38;;;;;;;15.63;8.85;;;;;;;-146.18;100.00;67994.34;9989073;29;20051;-66
2021/04/21 07:30:34;;;;;;;17.73;9.05;;;;;;;-146.18;100.00;67994.34;9992431;29;20052;-66
2021/04/21 07:35:32;;;;;;;13.93;8.55;;;;;;;-146.18;100.00;67994.34;9991278;29;20048;-66
2021/04/21 07:40:33;;;;;;;14.77;10.15;;;;;;;-146.18;100.00;67994.34;9993783;29;20078;-66
2021/04/21 07:45:59;;;;;;;20.30;11.95;;;;;;;-146.18;100.00;67994.34;9987190;29;20052;-66
2021/04/21 07:50:55;;;;;;;20.15;12.20;;;;;;;-146.18;100.00;67994.34;9979213;29;20731;-66
2021/04/21 07:56:03;;;;;;;15.88;11.10;;;;;;;-146.18;100.00;67994.34;9990047;29;20855;-66
2021/04/21 08:00:59;;;;;;;23.67;13.02;;;;;;;-146.18;100.00;67994.34;9989318;29;20104;-68
2021/04/21 08:05:55;;;;;;;23.05;13.57;;;;;;;-146.18;100.00;67994.34;9983629;29;20107;-65
2021/04/21 08:10:52;;;;;;;22.77;13.65;;;;;;;-146.18;100.00;67994.34;9988421;29;20054;-65
2021/04/21 08:15:48;;;;;;;24.77;14.68;;;;;;;-146.18;100.00;67994.34;9984966;29;20129;-65
2021/04/21 08:20:44;;;;;;;26.40;15.20;;;;;;;-146.18;100.00;67994.34;9989683;29;20586;-66
2021/04/21 08:25:59;;;;;;;25.00;15.68;;;;;;;-146.18;100.00;67994.34;9988050;29;20684;-66
2021/04/21 08:31:00;;;;;;;25.42;17.02;;;;;;;-146.18;100.00;67994.34;9988195;29;20526;-67
2021/04/21 08:35:56;;;;;;;26.00;16.15;;;;;;;-146.18;100.00;67994.34;9982497;29;20052;-66
2021/04/21 08:40:52;;;;;;;29.48;19.92;;;;;;;-146.18;100.00;67994.34;9988065;29;20111;-66
2021/04/21 08:45:51;;;;;;;30.13;20.65;;;;;;;-146.18;100.00;67994.34;9989817;29;20048;-66
2021/04/21 08:50:48;;;;;;;33.03;21.15;;;;;;;-146.18;100.00;67994.34;9985912;29;20054;-66
2021/04/21 08:55:44;;;;;;;32.35;22.13;;;;;;;-146.18;100.00;67994.34;9991153;29;20099;-66
2021/04/21 09:00:41;;;;;;;34.33;23.05;;;;;;;-146.18;100.00;67994.34;9987446;29;20460;-66
2021/04/21 09:05:37;;;;;;;36.20;24.15;;;;;;;-146.18;100.00;67994.34;9983611;29;20048;-66
2021/04/21 09:10:34;;;;;;;34.15;23.75;;;;;;;-146.18;100.00;67994.34;9986682;29;20078;-69
2021/04/21 09:15:30;;;;;;;37.53;23.17;;;;;;;-146.18;100.00;67994.34;9987988;29;20107;-67
2021/04/21 09:20:30;;;;;;;40.10;22.63;;;;;;;-146.18;100.00;67994.34;9982946;29;20051;-66
2021/04/21 09:25:35;;;;;;;35.97;24.55;;;;;;;-146.18;100.00;67994.34;9986302;29;20119;-66
2021/04/21 09:30:31;;;;;;;35.00;24.15;;;;;;;-146.18;100.00;67994.34;9986253;29;20553;-66
2021/04/21 09:35:30;;;;;;;32.15;22.02;;;;;;;-146.18;100.00;67994.34;9981335;29;20076;-66
2021/04/21 09:40:53;;;;;;;31.77;22.02;;;;;;;-146.18;100.00;67994.34;9984595;29;20426;-66
2021/04/21 09:45:51;;;;;;;33.15;20.15;;;;;;;-146.18;100.00;67994.34;9988157;29;20044;-66
2021/04/21 09:50:59;;;;;;;30.60;20.75;;;;;;;-146.18;100.00;67994.34;9985315;29;20104;-66
2021/04/21 09:56:14;;;;;;;28.38;17.20;;;;;;;-146.18;100.00;67994.34;9990570;29;20103;-66
2021/04/21 10:01:37;;;;;;;28.63;17.35;;;;;;;-146.18;100.00;67994.34;9981370;29;20052;-66
2021/04/21 10:06:34;;;;;;;27.95;15.90;;;;;;;-146.18;100.00;67994.34;9982246;29;20044;-67
2021/04/21 10:11:30;;;;;;;23.10;16.33;;;;;;;-146.18;100.00;67994.34;9985729;29;20096;-69
2021/04/21 10:16:26;;;;;;;22.02;14.35;;;;;;;-146.18;100.00;67994.34;9987577;29;20048;-65
2021/04/21 10:21:23;;;;;;;25.50;14.80;;;;;;;-146.18;100.00;67994.34;9995482;29;20511;-66
2021/04/21 10:26:19;;;;;;;26.55;14.85;;;;;;;-146.18;100.00;67994.34;9990890;29;20084;-66
2021/04/21 10:31:17;;;;;;;23.10;12.98;;;;;;;-146.18;100.00;67994.34;9991344;29;20088;-66
2021/04/21 10:36:13;;;;;;;17.60;11.40;;;;;;;-146.18;100.00;67994.34;9986703;29;20750;-66
2021/04/21 10:41:35;;;;;;;18.30;10.85;;;;;;;-146.18;100.00;67994.34;9988808;29;20162;-68
2021/04/21 10:46:57;;;;;;;14.30;5.97;;;;;;;-146.18;100.00;67994.34;9990066;29;20044;-67
2021/04/21 10:52:09;;;;;;;7.90;4.72;;;;;;;-146.18;100.00;67994.34;9989482;29;20089;-65
2021/04/21 10:57:19;;;;;;;10.05;5.35;;;;;;;-146.18;100.00;67994.34;9989706;29;20060;-67
2021/04/21 11:02:42;;;;;;;10.90;6.88;;;;;;;-146.18;100.00;67994.34;9988382;29;20479;-67
2021/04/21 11:07:41;;;;;;;9.07;4.68;;;;;;;-146.18;100.00;67994.34;9991043;29;20044;-66
2021/04/21 11:12:51;;;;;;;12.80;4.57;;;;;;;-146.18;100.00;67994.34;9991697;29;20048;-66
2021/04/21 11:18:12;;;;;;;9.75;2.97;;;;;;;-146.18;100.00;67994.34;9991386;29;20048;-66
2021/04/21 11:23:48;;;;;;;6.28;2.40;;;;;;;-146.18;100.00;67994.34;9993947;29;20112;-66
2021/04/21 11:29:19;;;;;;;9.95;2.08;;;;;;;-146.18;100.00;67994.34;9986439;29;20048;-68
2021/04/21 11:34:28;;;;;;;5.68;1.88;;;;;;;-146.18;100.00;67994.34;9985619;29;20103;-66
2021/04/21 11:39:39;;;;;;;7.22;1.95;;;;;;;-146.18;100.00;67994.34;9989570;29;20047;-66
2021/04/21 11:44:47;;;;;;;7.05;2.92;;;;;;;-146.18;100.00;67994.34;9990135;29;20048;-66
2021/04/21 11:49:58;;;;;;;7.43;2.00;;;;;;;-146.18;100.00;67994.34;9985769;29;20135;-67
2021/04/21 11:54:55;;;;;;;12.00;2.05;;;;;;;-146.18;100.00;67994.34;9994281;29;20060;-66
2021/04/21 11:59:51;;;;;;;9.85;1.70;;;;;;;-146.18;100.00;67994.34;9985749;29;20048;-66
2021/04/21 12:04:50;;;;;;;11.05;1.75;;;;;;;-146.18;100.00;67994.34;9991080;29;20044;-66
2021/04/21 12:09:46;;;;;;;9.65;1.38;;;;;;;-146.18;100.00;67994.34;9984241;29;20054;-68
2021/04/21 12:14:42;;;;;;;10.60;2.10;;;;;;;-146.18;100.00;67994.34;9993037;29;20040;-68
2021/04/21 12:19:39;;;;;;;11.50;2.53;;;;;;;-146.18;100.00;67994.34;9991491;29;20044;-67
2021/04/21 12:24:35;;;;;;;9.18;2.13;;;;;;;-146.18;100.00;67994.34;9987165;29;20127;-66
2021/04/21 12:29:31;;;;;;;8.65;1.98;;;;;;;-146.18;100.00;67994.34;9990655;29;20160;-65
2021/04/21 12:34:27;;;;;;;13.27;1.60;;;;;;;-146.18;100.00;67994.34;9989977;29;20044;-67
2021/04/21 12:39:25;;;;;;;8.82;1.55;;;;;;;-146.18;100.00;67994.34;9988082;29;20147;-68
2021/04/21 12:44:30;;;;;;;14.18;2.03;;;;;;;-146.18;100.00;67994.34;9970701;29;20060;-69
2021/04/21 12:49:43;;;;;;;11.60;2.03;;;;;;;-146.18;100.00;67994.34;9986767;29;20648;-67
2021/04/21 12:54:42;;;;;;;11.75;2.20;;;;;;;-146.18;100.00;67994.34;9983582;29;20553;-68
2021/04/21 12:59:44;;;;;;;11.07;2.03;;;;;;;-146.18;100.00;67994.34;9980055;29;20135;-67
2021/04/21 13:04:41;;;;;;;7.60;1.85;;;;;;;-146.18;100.00;67994.34;9987859;29;20044;-67
2021/04/21 13:09:37;;;;;;;9.38;1.83;;;;;;;-146.18;100.00;67994.34;9986981;29;20099;-67
2021/04/21 13:14:36;;;;;;;7.93;2.10;;;;;;;-146.18;100.00;67994.34;9990644;29;20063;-67
2021/04/21 13:19:36;;;;;;;10.65;1.75;;;;;;;-146.18;100.00;67994.34;9988354;29;20091;-66
2021/04/21 13:24:48;;;;;;;12.48;2.90;;;;;;;-146.18;100.00;67994.34;9983403;29;20153;-67
2021/04/21 13:29:57;;;;;;;13.70;2.75;;;;;;;-146.18;100.00;67994.34;9971851;29;20056;-67
2021/04/21 13:34:54;;;;;;;12.50;2.30;;;;;;;-146.18;100.00;67994.34;9985532;29;20045;-66
2021/04/21 13:39:59;;;;;;;9.27;2.60;;;;;;;-146.18;100.00;67994.34;9981229;29;20055;-67
2021/04/21 13:44:57;;;;;;;12.55;2.88;;;;;;;-146.18;100.00;67994.34;9975810;29;20108;-68
2021/04/21 13:49:53;;;;;;;11.63;2.78;;;;;;;-146.18;100.00;67994.34;9988944;29;20104;-67
2021/04/21 13:54:49;;;;;;;11.07;1.92;;;;;;;-146.18;100.00;67994.34;9996257;29;20052;-66
2021/04/21 13:59:45;;;;;;;6.97;1.70;;;;;;;-146.18;100.00;67994.34;9997141;29;20100;-69
2021/04/21 14:04:42;;;;;;;11.00;1.95;;;;;;;-146.18;100.00;67994.34;9994660;29;20499;-68
2021/04/21 14:09:40;;;;;;;7.78;1.85;;;;;;;-146.18;100.00;67994.34;9996064;29;20091;-66
2021/04/21 14:14:36;;;;;;;10.77;2.45;;;;;;;-146.18;100.00;67994.34;9992848;29;20103;-68
2021/04/21 14:19:33;;;;;;;11.77;2.50;;;;;;;-146.18;100.00;67994.34;9997185;29;20064;-66
2021/04/21 14:24:29;;;;;;;8.07;1.90;;;;;;;-146.18;100.00;67994.34;9993883;29;20056;-66
2021/04/21 14:29:25;;;;;;;11.82;2.00;;;;;;;-146.18;100.00;67994.34;9993922;29;20048;-66
2021/04/21 14:34:21;;;;;;;6.85;2.03;;;;;;;-146.18;100.00;67994.34;9990431;29;22332;-68
2021/04/21 14:39:18;;;;;;;10.48;1.40;;;;;;;-146.18;100.00;67994.34;9987878;29;20040;-68
2021/04/21 14:44:18;;;;;;;8.75;1.60;;;;;;;-146.18;100.00;67994.34;9993060;29;20507;-69
2021/04/21 14:49:14;;;;;;;6.95;1.30;;;;;;;-146.18;100.00;67994.34;9987587;29;20044;-68
2021/04/21 14:54:10;;;;;;;10.80;1.10;;;;;;;-146.18;100.00;67994.34;9995715;29;20048;-67
2021/04/21 14:59:06;;;;;;;9.38;1.00;;;;;;;-146.18;100.00;67994.34;9990004;29;20048;-67
2021/04/21 15:04:03;;;;;;;5.82;1.55;;;;;;;-146.18;100.00;67994.34;9991428;29;20052;-68
2021/04/21 15:09:01;;;;;;;10.35;1.55;;;;;;;-146.18;100.00;67994.34;9974015;29;20443;-67
2021/04/21 15:13:57;;;;;;;5.53;1.08;;;;;;;-146.18;100.00;67994.34;9985329;29;20079;-66
2021/04/21 15:18:57;;;;;;;4.70;1.08;;;;;;;-146.18;100.00;67994.34;9992097;29;20100;-67
2021/04/21 15:24:02;;;;;;;10.20;1.83;;;;;;;-146.18;100.00;67994.34;9992151;29;20056;-66
2021/04/21 15:28:58;;;;;;;5.60;1.13;;;;;;;-146.18;100.00;67994.34;9989880;29;20570;-67
2021/04/21 15:33:56;;;;;;;7.30;0.85;;;;;;;-146.18;100.00;67994.34;9993013;29;20103;-66
2021/04/21 15:38:53;;;;;;;11.38;1.90;;;;;;;-146.18;100.00;67994.34;9994378;29;20435;-66
2021/04/21 15:43:50;;;;;;;9.82;1.45;;;;;;;-146.18;100.00;67994.34;9987561;29;20045;-68
2021/04/21 15:48:47;;;;;;;7.70;1.23;;;;;;;-146.18;100.00;67994.34;9984447;29;20056;-66
2021/04/21 15:53:44;;;;;;;13.05;1.90;;;;;;;-146.18;100.00;67994.34;9970034;29;20532;-67
2021/04/21 15:58:42;;;;;;;11.57;1.95;;;;;;;-146.18;100.00;67994.34;9990305;29;20050;-67
2021/04/21 16:03:39;;;;;;;6.75;1.10;;;;;;;-146.18;100.00;67994.34;9984960;29;20131;-65
2021/04/21 16:08:35;;;;;;;9.70;1.67;;;;;;;-146.18;100.00;67994.34;9978609;29;20051;-65
2021/04/21 16:13:31;;;;;;;10.52;1.60;;;;;;;-146.18;100.00;67994.34;9988940;29;20131;-65
2021/04/21 16:18:27;;;;;;;9.27;1.70;;;;;;;-146.18;100.00;67994.34;9992378;29;20514;-65
2021/04/21 16:23:24;;;;;;;9.80;2.03;;;;;;;-146.18;100.00;67994.34;9982193;29;20491;-65
2021/04/21 16:28:20;;;;;;;9.45;2.08;;;;;;;-146.18;100.00;67994.34;9985917;29;20047;-68
2021/04/21 16:33:16;;;;;;;18.88;3.45;;;;;;;-146.18;100.00;67994.34;9985123;29;20083;-66
2021/04/21 16:38:13;;;;;;;9.50;2.05;;;;;;;-146.18;100.00;67994.34;9984127;29;20091;-66
2021/04/21 16:43:09;;;;;;;13.70;3.00;;;;;;;-146.18;100.00;67994.34;9985604;29;20073;-67
2021/04/21 16:48:06;;;;;;;14.45;2.65;;;;;;;-146.18;100.00;67994.34;9973916;29;20044;-67
2021/04/21 16:53:04;;;;;;;14.25;2.50;;;;;;;-146.18;100.00;67994.34;9982000;29;20111;-68
2021/04/21 16:58:17;;;;;;;20.23;1.95;;;;;;;-146.18;100.00;67994.34;9987926;29;20073;-66
2021/04/21 17:03:14;;;;;;;13.25;2.45;;;;;;;-146.18;100.00;67994.34;9983185;29;20056;-66
2021/04/21 17:08:10;;;;;;;15.07;2.67;;;;;;;-146.18;100.00;67994.34;9988166;29;20076;-67
2021/04/21 17:13:07;;;;;;;17.40;3.15;;;;;;;-146.18;100.00;67994.34;9987725;29;20092;-67
2021/04/21 17:18:04;;;;;;;20.08;3.50;;;;;;;-146.18;100.00;67994.34;9987357;29;20477;-67
2021/04/21 17:23:00;;;;;;;16.30;3.05;;;;;;;-146.18;100.00;67994.34;9985892;29;20071;-68
2021/04/21 17:27:59;;;;;;;17.98;2.53;;;;;;;-146.18;100.00;67994.34;9983586;29;20562;-68
2021/04/21 17:32:56;;;;;;;15.23;2.38;;;;;;;-146.18;100.00;67994.34;9979980;29;20411;-66
2021/04/21 17:37:52;;;;;;;10.52;2.10;;;;;;;-146.18;100.00;67994.34;9987986;29;20096;-66
2021/04/21 17:42:54;;;;;;;15.27;2.72;;;;;;;-146.18;100.00;67994.34;9981861;29;20095;-67
2021/04/21 17:47:50;;;;;;;15.25;1.75;;;;;;;-146.18;100.00;67994.34;9976909;29;20443;-66
2021/04/21 17:52:47;;;;;;;13.38;2.72;;;;;;;-146.18;100.00;67994.34;9987594;29;20774;-68
2021/04/21 17:57:43;;;;;;;13.52;1.92;;;;;;;-146.18;100.00;67994.34;9989532;29;20113;-67
2021/04/21 18:02:42;;;;;;;11.95;2.58;;;;;;;-146.18;100.00;67994.34;9983366;29;20055;-67
2021/04/21 18:07:40;;;;;;;13.50;3.05;;;;;;;-146.18;100.00;67994.34;9987477;29;20074;-66
2021/04/21 18:12:37;;;;;;;23.48;2.83;;;;;;;-146.18;100.00;67994.34;9987504;29;20044;-66
2021/04/21 18:17:34;;;;;;;10.30;2.35;;;;;;;-146.18;100.00;67994.34;9980930;29;20100;-67
2021/04/21 18:22:30;;;;;;;19.85;2.72;;;;;;;-146.18;100.00;67994.34;9985340;29;20044;-66
2021/04/21 18:27:26;;;;;;;15.95;3.47;;;;;;;-146.18;100.00;67994.34;9988674;29;20836;-68
2021/04/21 18:32:22;;;;;;;19.17;2.83;;;;;;;-146.18;100.00;67994.34;9987458;29;20377;-68
2021/04/21 18:37:19;;;;;;;18.08;3.33;;;;;;;-146.18;100.00;67994.34;9989831;29;20434;-66
2021/04/21 18:42:15;;;;;;;26.90;3.45;;;;;;;-146.18;100.00;67994.34;9983867;29;20044;-69
2021/04/21 18:47:11;;;;;;;17.88;3.13;;;;;;;-146.18;100.00;67994.34;9990236;29;20467;-65
2021/04/21 18:52:07;;;;;;;18.40;3.88;;;;;;;-146.18;100.00;67994.34;9986310;29;20055;-66
2021/04/21 18:57:03;;;;;;;15.75;3.05;;;;;;;-146.18;100.00;67994.34;9988839;29;20052;-66
2021/04/21 19:02:00;;;;;;;21.25;2.90;;;;;;;-146.18;100.00;67994.34;9992974;29;20534;-66
2021/04/21 19:06:57;;;;;;;15.88;3.25;;;;;;;-146.18;100.00;67994.34;9985190;29;20523;-67
2021/04/21 19:11:53;;;;;;;12.73;2.88;;;;;;;-146.18;100.00;67994.34;9991158;29;20104;-64
2021/04/21 19:16:49;;;;;;;14.02;2.78;;;;;;;-146.18;100.00;67994.34;9978400;29;20779;-67
2021/04/21 19:21:46;;;;;;;16.90;3.17;;;;;;;-146.18;100.00;67994.34;9986555;29;20044;-66
2021/04/21 19:26:42;;;;;;;12.27;2.40;;;;;;;-146.18;100.00;67994.34;9985793;29;20056;-66
2021/04/21 19:31:42;;;;;;;16.10;3.20;;;;;;;-146.18;100.00;67994.34;9985591;29;20043;-65
2021/04/21 19:36:40;;;;;;;15.98;3.38;;;;;;;-146.18;100.00;67994.34;9985253;29;20051;-66
2021/04/21 19:41:37;;;;;;;14.63;3.15;;;;;;;-146.18;100.00;67994.34;9990598;29;20107;-65
2021/04/21 19:46:36;;;;;;;16.10;3.80;;;;;;;-146.18;100.00;67994.34;9984678;29;20107;-65
2021/04/21 19:51:33;;;;;;;13.88;3.83;;;;;;;-146.18;100.00;67994.34;9976017;29;20076;-66
2021/04/21 19:56:29;;;;;;;18.08;4.28;;;;;;;-146.18;100.00;67994.34;9991030;29;20040;-65
2021/04/21 20:01:26;;;;;;;18.80;3.58;;;;;;;-146.18;100.00;67994.34;9990760;29;20052;-65
2021/04/21 20:06:23;;;;;;;22.45;4.50;;;;;;;-146.18;100.00;67994.34;9986617;29;20111;-66
2021/04/21 20:11:20;;;;;;;28.52;6.07;;;;;;;-146.18;100.00;67994.34;9991179;29;20068;-65
2021/04/21 20:16:16;;;;;;;17.85;3.70;;;;;;;-146.18;100.00;67994.34;9990156;29;20108;-65
2021/04/21 20:21:12;;;;;;;23.55;5.03;;;;;;;-146.18;100.00;67994.34;9985821;29;20409;-65
2021/04/21 20:26:08;;;;;;;19.65;4.47;;;;;;;-146.18;100.00;67994.34;9986442;29;20071;-65
2021/04/21 20:31:04;;;;;;;20.30;4.88;;;;;;;-146.18;100.00;67994.34;9991716;29;20104;-64
2021/04/21 20:36:00;;;;;;;21.88;5.03;;;;;;;-146.18;100.00;67994.34;9987374;29;20063;-67
2021/04/21 20:40:56;;;;;;;18.58;5.05;;;;;;;-146.18;100.00;67994.34;9992231;29;20044;-66
2021/04/21 20:45:52;;;;;;;22.15;4.20;;;;;;;-146.18;100.00;67994.34;9989488;29;20136;-66
2021/04/21 20:50:48;;;;;;;21.30;6.20;;;;;;;-146.18;100.00;67994.34;9984748;29;21039;-66
2021/04/21 20:55:44;;;;;;;30.02;6.00;;;;;;;-146.18;100.00;67994.34;9980135;29;20099;-66
2021/04/21 21:00:49;;;;;;;20.17;5.13;;;;;;;-146.18;100.00;67994.34;9989335;29;20044;-67
2021/04/21 21:05:46;;;;;;;14.52;4.57;;;;;;;-146.18;100.00;67994.34;9990911;29;20148;-66
2021/04/21 21:10:43;;;;;;;21.77;4.90;;;;;;;-146.18;100.00;67994.34;9977531;29;20055;-67
2021/04/21 21:15:39;;;;;;;17.45;4.70;;;;;;;-146.18;100.00;67994.34;9983681;29;20052;-65
2021/04/21 21:20:35;;;;;;;24.88;5.60;;;;;;;-146.18;100.00;67994.34;9986649;29;20048;-66
2021/04/21 21:25:31;;;;;;;32.20;4.82;;;;;;;-146.18;100.00;67994.34;9987849;29;20048;-65
2021/04/21 21:30:27;;;;;;;15.05;4.72;;;;;;;-146.18;100.00;67994.34;9980045;29;20618;-66
2021/04/21 21:35:23;;;;;;;27.38;4.40;;;;;;;-146.18;100.00;67994.34;9972594;29;20044;-67
2021/04/21 21:40:39;;;;;;;20.90;4.35;;;;;;;-146.18;100.00;67994.34;9981486;29;20407;-65
2021/04/21 21:45:35;;;;;;;18.85;4.10;;;;;;;-146.18;100.00;67994.34;9983205;29;20099;-66
2021/04/21 21:50:32;;;;;;;20.15;5.30;;;;;;;-146.18;100.00;67994.34;9978451;29;20049;-66
2021/04/21 21:55:28;;;;;;;22.92;5.75;;;;;;;-146.18;100.00;67994.34;9979426;29;20048;-66
2021/04/21 22:00:26;;;;;;;21.42;3.63;;;;;;;-146.18;100.00;67994.34;9986730;29;20072;-67
2021/04/21 22:05:22;;;;;;;15.35;3.63;;;;;;;-146.18;100.00;67994.34;9989290;29;20075;-65
2021/04/21 22:10:21;;;;;;;19.60;3.45;;;;;;;-146.18;100.00;67994.34;9992659;29;20048;-65
2021/04/21 22:15:25;;;;;;;17.63;3.95;;;;;;;-146.18;100.00;67994.34;9992551;29;20124;-67
2021/04/21 22:20:22;;;;;;;17.52;3.30;;;;;;;-146.18;100.00;67994.34;9986071;29;20082;-66
2021/04/21 22:25:19;;;;;;;20.27;4.07;;;;;;;-146.18;100.00;67994.34;9993630;29;20048;-65
2021/04/21 22:30:25;;;;;;;18.23;3.25;;;;;;;-146.18;100.00;67994.34;9992849;29;20107;-68
2021/04/21 22:35:21;;;;;;;15.80;2.80;;;;;;;-146.18;100.00;67994.34;9991613;29;20060;-65